Oasis of the Seas — C6XS7 — position and weather

sailwx.info

Track history (hours):
 
Tides and Currents Weather Stations Pressure Air Temp Water Temp Dewpoint Dewpoint Depression Visibility Wind Speed Wind Dir Waves Ship Positions

Oasis of the Seas

Last reported at 2015-May-20 22:25 UTC. Time now 2015-May-23 04:21 UTC.
Position N 18°10' W 063°22'.

Length 360 m; draft 9.3 m.

Type: Passenger vessel. MMSI: 311020600.

Date/timePositionNaut miles runAvg speedWind from/ knotsBaromVisibWave heightAir tempDewpointWater temp
2015-May-20 22:25N 18°10' W 063°22'1416.7
2015-May-20 21:33N 18°01' W 063°10'7 3.3
2015-May-20 19:31N 18°01' W 063°03'0 0.0
2015-May-20 17:04N 18°01' W 063°03'0 0.0
2015-May-20 12:22N 18°01' W 063°03'0 0.2
2015-May-20 11:31N 18°01' W 063°03'8 8.0
2015-May-20 10:33N 18°00' W 063°11'9 8.9
2015-May-20 09:33N 18°00' W 063°20'9 8.7
2015-May-20 08:32N 18°01' W 063°30'8 8.4
2015-May-20 07:32N 18°01' W 063°38'9 8.5
2015-May-20 06:27N 18°01' W 063°48'  
2015-May-16 22:14N 26°07' W 079°48'912.8
2015-May-16 21:33N 26°06' W 079°58'9 8.6
2015-May-16 20:33N 26°05' W 080°07'0 0.0
2015-May-16 19:33N 26°05' W 080°07'0 0.0
2015-May-16 18:24N 26°05' W 080°07'0 0.0
2015-May-16 17:27N 26°05' W 080°07'0 0.0
2015-May-16 16:24N 26°05' W 080°07'0 0.0
2015-May-16 15:27N 26°05' W 080°07'0 0.0
2015-May-16 14:30N 26°05' W 080°07'0 0.0
2015-May-16 13:30N 26°05' W 080°07'0 0.0
2015-May-16 12:30N 26°05' W 080°07'0 0.0
2015-May-16 11:33N 26°05' W 080°07'0 0.0
2015-May-16 10:33N 26°05' W 080°07'1 0.6
2015-May-16 09:33N 26°06' W 080°07'8 8.5
2015-May-16 08:34N 26°00' W 079°59'50715.1
2015-May-14 23:04N 20°31' W 086°59'2 3.1
2015-May-14 22:31N 20°29' W 086°59'0 0.0
2015-May-14 21:31N 20°29' W 086°59'0 0.0
2015-May-14 20:21N 20°29' W 086°59'0 0.0
2015-May-14 19:34N 20°29' W 086°59'0 0.0
2015-May-14 18:33N 20°29' W 086°59'0 0.0
2015-May-14 17:33N 20°29' W 086°59'0 0.0
2015-May-14 16:33N 20°29' W 086°59'0 0.0
2015-May-14 15:24N 20°29' W 086°59'0 0.0
2015-May-14 14:28N 20°29' W 086°59'0 0.0
2015-May-14 13:34N 20°29' W 086°59'0 0.0
2015-May-14 12:27N 20°29' W 086°59'0 0.2
2015-May-14 11:33N 20°29' W 086°59'  
Track history (hours):
 
Tides and Currents Weather Stations Pressure Air Temp Water Temp Dewpoint Dewpoint Depression Visibility Wind Speed Wind Dir Waves Ship Positions

Oasis of the Seas

Last reported at 2015-May-20 22:25 UTC. Time now 2015-May-23 04:21 UTC.
Position N 18°10' W 063°22'.

Length 360 m; draft 9.3 m.

Type: Passenger vessel. MMSI: 311020600.

Date/timePositionNaut miles runAvg speedWind from/ knotsBaromVisibWave heightAir tempDewpointWater temp
2015-May-20 22:25N 18°10' W 063°22'1416.7
2015-May-20 21:33N 18°01' W 063°10'7 3.3
2015-May-20 19:31N 18°01' W 063°03'0 0.0
2015-May-20 17:04N 18°01' W 063°03'0 0.0
2015-May-20 12:22N 18°01' W 063°03'0 0.2
2015-May-20 11:31N 18°01' W 063°03'8 8.0
2015-May-20 10:33N 18°00' W 063°11'9 8.9
2015-May-20 09:33N 18°00' W 063°20'9 8.7
2015-May-20 08:32N 18°01' W 063°30'8 8.4
2015-May-20 07:32N 18°01' W 063°38'9 8.5
2015-May-20 06:27N 18°01' W 063°48'  
2015-May-16 22:14N 26°07' W 079°48'912.8
2015-May-16 21:33N 26°06' W 079°58'9 8.6
2015-May-16 20:33N 26°05' W 080°07'0 0.0
2015-May-16 19:33N 26°05' W 080°07'0 0.0
2015-May-16 18:24N 26°05' W 080°07'0 0.0
2015-May-16 17:27N 26°05' W 080°07'0 0.0
2015-May-16 16:24N 26°05' W 080°07'0 0.0
2015-May-16 15:27N 26°05' W 080°07'0 0.0
2015-May-16 14:30N 26°05' W 080°07'0 0.0
2015-May-16 13:30N 26°05' W 080°07'0 0.0
2015-May-16 12:30N 26°05' W 080°07'0 0.0
2015-May-16 11:33N 26°05' W 080°07'0 0.0
2015-May-16 10:33N 26°05' W 080°07'1 0.6
2015-May-16 09:33N 26°06' W 080°07'8 8.5
2015-May-16 08:34N 26°00' W 079°59'50715.1
2015-May-14 23:04N 20°31' W 086°59'2 3.1
2015-May-14 22:31N 20°29' W 086°59'0 0.0
2015-May-14 21:31N 20°29' W 086°59'0 0.0
2015-May-14 20:21N 20°29' W 086°59'0 0.0
2015-May-14 19:34N 20°29' W 086°59'0 0.0
2015-May-14 18:33N 20°29' W 086°59'0 0.0
2015-May-14 17:33N 20°29' W 086°59'0 0.0
2015-May-14 16:33N 20°29' W 086°59'0 0.0
2015-May-14 15:24N 20°29' W 086°59'0 0.0
2015-May-14 14:28N 20°29' W 086°59'0 0.0
2015-May-14 13:34N 20°29' W 086°59'0 0.0
2015-May-14 12:27N 20°29' W 086°59'0 0.2
2015-May-14 11:33N 20°29' W 086°59'  

Dump ship's entire track history